createdAt,value
2023-11-23T00:02:54.376Z,0.80
2023-11-23T00:06:20.210Z,1.10
2023-11-23T00:09:32.634Z,1.02
2023-11-23T00:12:44.922Z,0.68
2023-11-23T00:15:55.378Z,0.40
2023-11-23T00:19:05.845Z,1.08
2023-11-23T00:22:15.597Z,0.90
2023-11-23T00:25:25.848Z,1.02
2023-11-23T00:28:36.410Z,1.48
2023-11-23T00:31:46.988Z,1.52
2023-11-23T00:34:59.763Z,1.70
2023-11-23T00:38:15.083Z,2.38
2023-11-23T00:41:25.551Z,1.20
2023-11-23T00:44:37.746Z,2.25
2023-11-23T00:47:50.789Z,1.40
2023-11-23T00:51:09.421Z,0.90
2023-11-23T00:54:21.496Z,2.15
2023-11-23T00:57:30.878Z,1.58
2023-11-23T01:00:43.564Z,2.45
2023-11-23T01:03:54.335Z,1.75
2023-11-23T01:07:06.179Z,1.95
2023-11-23T01:10:16.333Z,1.77
2023-11-23T01:13:26.705Z,1.35
2023-11-23T01:16:38.229Z,3.17
2023-11-23T01:19:52.656Z,2.40
2023-11-23T01:23:03.626Z,2.42
2023-11-23T01:26:14.494Z,2.92
2023-11-23T01:32:38.479Z,2.08
2023-11-23T01:35:42.668Z,3.35
2023-11-23T01:38:47.694Z,2.55
2023-11-23T01:41:56.376Z,3.45
2023-11-23T01:45:06.713Z,3.47
2023-11-23T01:48:16.085Z,4.82
2023-11-23T01:55:12.502Z,3.92
2023-11-23T02:05:39.522Z,3.03
2023-11-23T02:08:50.646Z,2.95
2023-11-23T02:12:01.942Z,3.40
2023-11-23T02:15:22.670Z,3.90
2023-11-23T02:25:20.970Z,1.98
2023-11-23T02:32:10.775Z,1.92
2023-11-23T02:35:25.351Z,0.52
2023-11-23T02:38:44.698Z,2.53
2023-11-23T02:41:59.899Z,1.52
2023-11-23T02:45:23.238Z,0.77
2023-11-23T02:49:22.940Z,0.73
2023-11-23T02:52:36.998Z,0.85
2023-11-23T02:56:11.628Z,1.13
2023-11-23T02:59:21.782Z,0.40
2023-11-23T03:02:36.445Z,1.38
2023-11-23T03:05:45.837Z,1.23
2023-11-23T03:09:15.578Z,0.63
2023-11-23T03:12:31.614Z,1.85
2023-11-23T03:15:47.969Z,1.30
2023-11-23T03:18:59.462Z,2.13
2023-11-23T03:25:44.227Z,2.35
2023-11-23T03:32:44.185Z,1.70
2023-11-23T03:39:50.943Z,0.50
2023-11-23T03:42:59.663Z,0.98
2023-11-23T03:46:32.953Z,1.80
2023-11-23T03:49:43.845Z,1.00
2023-11-23T03:53:11.310Z,2.83
2023-11-23T03:56:46.156Z,1.20
2023-11-23T03:59:52.736Z,1.20
2023-11-23T04:03:02.133Z,1.52
2023-11-23T04:06:18.827Z,1.52
2023-11-23T04:09:34.346Z,1.65
2023-11-23T04:12:52.108Z,0.68
2023-11-23T04:16:15.832Z,2.88
2023-11-23T04:23:05.164Z,1.33
2023-11-23T04:26:15.765Z,1.67
2023-11-23T04:29:29.474Z,1.38
2023-11-23T04:36:11.832Z,2.40
2023-11-23T04:39:25.259Z,0.75
2023-11-23T04:42:41.742Z,1.23
2023-11-23T04:45:49.921Z,0.95
2023-11-23T04:49:02.317Z,2.03
2023-11-23T04:52:23.893Z,2.10
2023-11-23T04:55:37.484Z,2.20
2023-11-23T04:58:46.085Z,0.90
2023-11-23T05:06:04.741Z,1.23
2023-11-23T05:09:19.138Z,1.88
2023-11-23T05:12:42.659Z,2.15
2023-11-23T05:15:54.528Z,1.63
2023-11-23T05:29:51.257Z,2.95
2023-11-23T05:37:35.597Z,2.10
2023-11-23T05:40:56.262Z,2.15
2023-11-23T05:44:17.698Z,1.88
2023-11-23T05:47:26.304Z,1.95
2023-11-23T05:50:58.378Z,2.15
2023-11-23T06:01:15.671Z,2.30
2023-11-23T06:07:42.114Z,1.08
2023-11-23T06:14:39.717Z,1.48
2023-11-23T06:18:10.763Z,2.33
2023-11-23T06:24:52.469Z,2.08
2023-11-23T06:28:14.635Z,2.42
2023-11-23T06:31:24.683Z,2.80
2023-11-23T06:34:30.946Z,3.03
2023-11-23T06:37:35.943Z,2.33
2023-11-23T06:40:43.073Z,2.67
2023-11-23T06:43:52.759Z,0.93
2023-11-23T06:46:57.759Z,1.92
2023-11-23T06:50:07.188Z,1.48
2023-11-23T06:53:20.036Z,1.75
2023-11-23T06:56:30.290Z,0.85
2023-11-23T06:59:38.377Z,1.55
2023-11-23T07:02:46.536Z,1.15
2023-11-23T07:14:44.948Z,1.67
2023-11-23T07:17:52.147Z,0.77
2023-11-23T07:20:57.433Z,1.00
2023-11-23T07:24:09.158Z,0.85
2023-11-23T07:27:21.311Z,1.38
2023-11-23T07:33:41.640Z,1.15
2023-11-23T07:36:54.341Z,1.30
2023-11-23T07:39:59.645Z,1.38
2023-11-23T07:43:09.794Z,1.83
2023-11-23T07:46:15.681Z,2.42
2023-11-23T07:49:21.011Z,1.52
2023-11-23T07:52:27.094Z,1.50
2023-11-23T07:55:46.826Z,2.30
2023-11-23T07:58:54.745Z,2.10
2023-11-23T08:05:54.975Z,3.28
2023-11-23T08:13:00.084Z,3.22
2023-11-23T08:16:06.566Z,1.00
2023-11-23T08:19:12.341Z,1.17
2023-11-23T08:22:30.482Z,2.75
2023-11-23T08:25:38.676Z,2.67
2023-11-23T08:28:46.069Z,1.23
2023-11-23T08:31:57.352Z,2.00
2023-11-23T08:35:06.082Z,2.88
2023-11-23T08:38:16.126Z,2.05
2023-11-23T08:41:28.282Z,2.30
2023-11-23T08:44:45.349Z,4.65
2023-11-23T08:47:54.136Z,4.93
2023-11-23T08:51:03.654Z,3.90
2023-11-23T08:54:14.970Z,3.00
2023-11-23T08:57:25.705Z,2.58
2023-11-23T09:04:02.348Z,2.78
2023-11-23T09:07:14.947Z,4.18
2023-11-23T09:10:37.340Z,3.20
2023-11-23T09:13:49.021Z,2.47
2023-11-23T09:17:06.668Z,2.92
2023-11-23T09:23:59.860Z,3.05
2023-11-23T09:27:11.737Z,6.13
2023-11-23T09:30:22.980Z,6.72
2023-11-23T09:33:41.977Z,4.05
2023-11-23T09:36:53.309Z,6.35
2023-11-23T09:40:02.928Z,3.28
2023-11-23T09:50:17.541Z,0.82
2023-11-23T09:53:30.933Z,2.97
2023-11-23T09:57:08.354Z,4.82
2023-11-23T10:00:27.126Z,3.50
2023-11-23T10:03:44.312Z,4.40
2023-11-23T10:07:28.920Z,3.92
2023-11-23T10:10:42.469Z,4.68
2023-11-23T10:27:50.674Z,5.30
2023-11-23T10:30:59.807Z,5.72
2023-11-23T10:37:39.668Z,6.53
2023-11-23T10:40:56.354Z,6.00
2023-11-23T10:44:10.123Z,5.05
2023-11-23T10:47:23.345Z,5.90
2023-11-23T10:50:35.253Z,5.63
2023-11-23T10:53:51.761Z,4.22
2023-11-23T11:04:01.494Z,5.57
2023-11-23T11:07:57.377Z,6.22
2023-11-23T11:11:24.605Z,6.85
2023-11-23T11:14:43.004Z,7.30
2023-11-23T11:17:54.407Z,4.55
2023-11-23T11:21:21.974Z,6.25
2023-11-23T11:24:40.272Z,4.10
2023-11-23T11:27:59.974Z,4.88
2023-11-23T11:31:23.770Z,3.80
2023-11-23T11:38:00.973Z,5.80
2023-11-23T11:41:17.742Z,5.13
2023-11-23T11:44:35.628Z,5.32
2023-11-23T11:47:50.912Z,6.18
2023-11-23T11:51:04.066Z,5.55
2023-11-23T11:54:49.355Z,4.45
2023-11-23T12:01:44.319Z,5.15
2023-11-23T12:12:18.474Z,5.13
2023-11-23T12:16:07.077Z,6.82
2023-11-23T12:23:20.619Z,5.78
2023-11-23T12:26:38.783Z,6.32
2023-11-23T12:29:59.119Z,6.60
2023-11-23T12:36:43.764Z,3.80
2023-11-23T12:44:19.586Z,4.57
2023-11-23T12:47:32.653Z,3.80
2023-11-23T12:50:42.730Z,4.55
2023-11-23T13:05:23.627Z,4.07
2023-11-23T13:12:15.091Z,3.15
2023-11-23T13:15:33.518Z,3.15
2023-11-23T13:33:33.268Z,2.60
2023-11-23T14:13:10.795Z,2.13
2023-11-23T14:19:35.909Z,4.20
2023-11-23T15:14:45.391Z,3.63
2023-11-23T15:21:46.147Z,3.03
2023-11-23T15:39:04.123Z,2.55
2023-11-23T15:42:28.476Z,2.63
2023-11-23T15:49:19.915Z,2.75
2023-11-23T15:52:37.883Z,0.85
2023-11-23T15:56:19.535Z,2.28
2023-11-23T16:03:11.660Z,1.20
2023-11-23T16:10:19.204Z,0.73
2023-11-23T16:24:56.895Z,1.80
2023-11-23T16:31:42.199Z,1.13
2023-11-23T16:46:18.552Z,1.60
2023-11-23T16:49:44.160Z,1.40
2023-11-23T16:53:14.046Z,0.38
2023-11-23T16:57:02.626Z,0.60
2023-11-23T17:04:29.217Z,1.00
2023-11-23T17:07:42.574Z,0.60
2023-11-23T17:11:22.499Z,1.20
2023-11-23T17:14:41.106Z,1.23
2023-11-23T17:17:58.114Z,1.45
2023-11-23T17:24:57.118Z,1.08
2023-11-23T17:31:50.838Z,2.03
2023-11-23T17:35:11.418Z,0.65
2023-11-23T17:38:34.406Z,0.45
2023-11-23T17:42:11.677Z,0.75
2023-11-23T17:45:29.951Z,1.70
2023-11-23T17:49:05.147Z,1.50
2023-11-23T17:52:25.240Z,0.55
2023-11-23T17:55:42.181Z,0.25
2023-11-23T18:02:39.283Z,0.55
2023-11-23T18:06:03.202Z,0.95
2023-11-23T18:09:22.144Z,0.75
2023-11-23T18:12:46.013Z,0.30
2023-11-23T18:16:29.123Z,1.45
2023-11-23T18:20:08.339Z,0.35
2023-11-23T18:23:27.399Z,0.82
2023-11-23T18:27:08.665Z,1.08
2023-11-23T18:30:32.136Z,1.60
2023-11-23T18:37:35.905Z,1.27
2023-11-23T18:40:54.964Z,1.88
2023-11-23T18:44:16.982Z,1.83
2023-11-23T18:47:37.424Z,0.75
2023-11-23T18:54:22.556Z,2.20
2023-11-23T18:57:44.857Z,0.82
2023-11-23T19:04:52.855Z,1.67
2023-11-23T19:12:03.144Z,2.60
2023-11-23T19:19:10.880Z,1.85
2023-11-23T19:26:35.647Z,1.75
2023-11-23T19:33:36.304Z,0.65
2023-11-23T19:37:19.647Z,1.83
2023-11-23T19:40:51.496Z,2.10
2023-11-23T19:44:17.204Z,4.30
2023-11-23T19:47:35.784Z,3.60
2023-11-23T19:50:56.351Z,2.42
2023-11-23T19:54:22.332Z,3.05
2023-11-23T19:57:37.451Z,2.17
2023-11-23T20:01:03.486Z,1.27
2023-11-23T20:07:47.867Z,0.88
2023-11-23T20:10:53.411Z,1.15
2023-11-23T20:14:57.271Z,0.93
2023-11-23T20:22:19.236Z,0.82
2023-11-23T20:25:31.399Z,1.90
2023-11-23T20:28:46.408Z,1.90
2023-11-23T20:32:25.502Z,1.17
2023-11-23T20:35:38.123Z,3.25
2023-11-23T20:42:43.914Z,2.50
2023-11-23T20:46:02.369Z,1.45
2023-11-23T20:49:31.591Z,1.52
2023-11-23T20:52:47.344Z,2.10
2023-11-23T20:56:15.951Z,2.80
2023-11-23T20:59:28.717Z,2.60
2023-11-23T21:02:50.331Z,1.63
2023-11-23T21:06:14.084Z,3.20
2023-11-23T21:09:41.513Z,5.50
2023-11-23T21:12:57.107Z,1.17
2023-11-23T21:19:38.546Z,2.67
2023-11-23T21:22:56.503Z,1.52
2023-11-23T21:29:28.564Z,3.17
2023-11-23T21:32:38.129Z,1.08
2023-11-23T21:35:46.054Z,2.58
2023-11-23T21:39:02.481Z,1.88
2023-11-23T21:45:59.600Z,2.40
2023-11-23T21:52:33.638Z,1.33
2023-11-23T21:55:51.510Z,1.42
2023-11-23T21:59:18.662Z,0.75
2023-11-23T22:02:34.168Z,2.10
2023-11-23T22:09:12.658Z,0.85
2023-11-23T22:12:21.416Z,1.75
2023-11-23T22:15:40.876Z,0.68
2023-11-23T22:19:14.381Z,2.25
2023-11-23T22:22:42.344Z,2.90
2023-11-23T22:25:54.974Z,1.98
2023-11-23T22:29:12.600Z,2.75
2023-11-23T22:32:25.027Z,2.78
2023-11-23T22:35:55.975Z,2.55
2023-11-23T22:50:05.940Z,2.75
2023-11-23T22:53:22.740Z,0.55
2023-11-23T23:00:11.806Z,0.35
2023-11-23T23:04:06.426Z,5.00
2023-11-23T23:07:47.279Z,2.58
2023-11-23T23:15:30.554Z,1.98
2023-11-23T23:18:43.168Z,2.58
2023-11-23T23:22:20.455Z,2.78
2023-11-23T23:25:35.416Z,1.73
2023-11-23T23:29:05.267Z,0.88
2023-11-23T23:32:27.426Z,3.72
2023-11-23T23:35:46.565Z,5.07
2023-11-23T23:39:03.722Z,2.08
2023-11-23T23:42:24.958Z,2.67
2023-11-23T23:45:47.480Z,0.17
